CSB5 weather

Shediac Bridge Airport
Shediac Bridge, New Brunswick, Canada

Public forecast

Using degrees Celsius for public forecast. Weather courtesy of forecast.io.

Closest aviation weather report (METAR) to Shediac Bridge Airport

Closest report is Greater Moncton Roméo LeBlanc International Airport, 9.5 nm (17.7 km) SSW. Retrieved 2020/07/12 10:00 UTC (43 minutes ago):

CYQM 121000Z 15007KT 15SM FEW013 BKN130 22/21 A2968 RMK SC2AC4 SLP052 DENSITY ALT 1400FT

Closest aviation forecast (TAF) to Shediac Bridge Airport

Closest forecast is Greater Moncton Roméo LeBlanc International Airport, 9.5 nm (17.7 km) SSW. Retrieved 2020/07/12 06:42 UTC (4 hours ago):

TAF CYQM 120539Z 1206/1306 17010KT P6SM BKN005 OVC030 TEMPO 1206/1214 SCT005 OVC030 FM121400 19015G25KT P6SM BKN030 BECMG 1214/1216 19020G30KT FM130100 21015G25KT P6SM BKN020 BECMG 1301/1303 22012G22KT RMK NXT FCST BY 121200Z